Time;durP1;ratioP1;P1;durP2;ratioP2;P2;SDS_P1;SDS_P2;PMS_P1;PMS_P2;Temp;Humidity;BMP_temperature;BMP_pressure;BME280_temperature;BME280_humidity;BME280_pressure;Samples;Min_cycle;Max_cycle;Signal;HPM_P1;HPM_P2
2023/06/02 00:00:14;;;;;;;12.05;2.83;;;11.10;99.90;;;;;;5083870;28;20054;-76
2023/06/02 00:02:41;;;;;;;8.18;2.38;;;11.10;99.90;;;;;;5102206;28;20055;-75
2023/06/02 00:05:08;;;;;;;12.07;2.92;;;11.10;99.90;;;;;;5087012;28;20058;-76
2023/06/02 00:07:41;;;;;;;11.27;2.25;;;11.10;99.90;;;;;;5070182;28;20048;-75
2023/06/02 00:10:08;;;;;;;10.57;2.28;;;11.10;99.90;;;;;;5084408;28;20510;-75
2023/06/02 00:12:34;;;;;;;10.43;2.40;;;11.10;99.90;;;;;;5070209;28;20055;-75
2023/06/02 00:15:01;;;;;;;9.88;2.65;;;11.10;99.90;;;;;;5053215;28;20052;-74
2023/06/02 00:17:27;;;;;;;11.55;2.50;;;11.10;99.90;;;;;;5102971;28;20048;-75
2023/06/02 00:19:56;;;;;;;15.43;2.63;;;11.20;99.90;;;;;;5070196;28;20063;-76
2023/06/02 00:22:29;;;;;;;9.75;2.22;;;11.10;99.90;;;;;;5052286;28;20410;-74
2023/06/02 00:24:57;;;;;;;8.40;2.03;;;11.10;99.90;;;;;;5070682;28;20076;-75
2023/06/02 00:27:23;;;;;;;8.52;2.40;;;11.10;99.90;;;;;;5068587;28;20083;-76
2023/06/02 00:29:49;;;;;;;12.75;2.25;;;11.10;99.90;;;;;;5070475;28;20528;-75
2023/06/02 00:32:20;;;;;;;11.60;2.67;;;11.10;99.90;;;;;;5070217;28;20135;-75
2023/06/02 00:34:49;;;;;;;9.88;2.40;;;11.10;99.90;;;;;;5087686;28;20117;-75
2023/06/02 00:37:18;;;;;;;8.95;2.40;;;11.10;99.90;;;;;;5052853;28;20399;-74
2023/06/02 00:39:46;;;;;;;13.30;3.33;;;11.00;99.90;;;;;;5078041;28;20411;-75
2023/06/02 00:42:19;;;;;;;8.70;2.58;;;11.10;99.90;;;;;;5085601;28;20052;-74
2023/06/02 00:44:45;;;;;;;9.57;2.38;;;11.10;99.90;;;;;;5083223;28;20500;-74
2023/06/02 00:47:11;;;;;;;13.73;2.88;;;11.10;99.90;;;;;;5068268;28;20044;-74
2023/06/02 00:49:36;;;;;;;14.95;3.28;;;11.10;99.90;;;;;;5082865;28;20126;-74
2023/06/02 00:52:03;;;;;;;10.27;2.30;;;11.10;99.90;;;;;;5084251;28;20052;-75
2023/06/02 00:54:29;;;;;;;12.70;2.47;;;11.10;99.90;;;;;;5045235;28;20044;-75
2023/06/02 00:57:00;;;;;;;10.52;2.00;;;11.10;99.90;;;;;;5077500;28;20380;-74
2023/06/02 00:59:30;;;;;;;10.98;2.30;;;11.10;99.90;;;;;;5086290;28;20498;-74
2023/06/02 01:02:00;;;;;;;11.00;2.17;;;11.10;99.90;;;;;;5085600;28;20181;-74
2023/06/02 01:04:30;;;;;;;11.63;2.60;;;11.10;99.90;;;;;;5068983;28;20393;-74
2023/06/02 01:07:03;;;;;;;6.15;2.30;;;11.10;99.90;;;;;;5103842;28;20123;-76
2023/06/02 01:09:47;;;;;;;9.35;2.70;;;11.00;99.90;;;;;;5084985;28;20062;-75
2023/06/02 01:12:13;;;;;;;12.80;2.97;;;11.00;99.90;;;;;;5087693;28;20576;-74
2023/06/02 01:14:40;;;;;;;11.05;2.58;;;11.00;99.90;;;;;;5082369;28;20052;-74
2023/06/02 01:17:11;;;;;;;12.70;2.40;;;11.00;99.90;;;;;;5089042;28;20131;-74
2023/06/02 01:19:38;;;;;;;10.30;2.55;;;11.10;99.90;;;;;;5088999;28;20079;-75
2023/06/02 01:22:19;;;;;;;11.35;2.80;;;11.10;99.90;;;;;;5086212;28;20052;-74
2023/06/02 01:24:48;;;;;;;8.55;2.60;;;11.10;99.90;;;;;;5105942;28;20064;-74
2023/06/02 01:27:23;;;;;;;10.43;2.35;;;11.10;99.90;;;;;;5074070;28;20108;-74
2023/06/02 01:29:52;;;;;;;12.05;2.78;;;11.10;99.90;;;;;;5088403;28;20123;-75
2023/06/02 01:32:24;;;;;;;9.43;2.78;;;11.10;99.90;;;;;;5065852;28;20877;-75
2023/06/02 01:35:11;;;;;;;10.30;2.40;;;11.10;99.90;;;;;;5089880;28;20177;-75
2023/06/02 01:37:46;;;;;;;12.18;2.65;;;11.10;99.90;;;;;;5089278;28;20096;-75
2023/06/02 01:40:13;;;;;;;13.38;2.70;;;11.10;99.90;;;;;;5054362;28;20123;-75
2023/06/02 01:42:40;;;;;;;12.98;2.40;;;11.10;99.90;;;;;;5072301;28;20052;-75
2023/06/02 01:45:07;;;;;;;9.38;2.50;;;11.10;99.90;;;;;;5071923;28;20048;-75
2023/06/02 01:47:33;;;;;;;10.55;2.20;;;11.00;99.90;;;;;;5088636;28;20056;-75
2023/06/02 01:50:03;;;;;;;7.38;2.13;;;11.10;99.90;;;;;;5070919;28;20557;-75
2023/06/02 01:52:29;;;;;;;12.43;2.60;;;11.00;99.90;;;;;;5072261;28;20110;-75
2023/06/02 01:54:54;;;;;;;11.07;2.63;;;11.00;99.90;;;;;;5055320;28;20091;-75
2023/06/02 01:57:27;;;;;;;13.20;2.70;;;10.20;99.90;;;;;;5057659;28;20058;-75
2023/06/02 01:59:53;;;;;;;7.90;1.85;;;11.00;99.90;;;;;;5072357;28;20127;-76
2023/06/02 02:02:22;;;;;;;8.30;2.00;;;10.40;99.90;;;;;;5087456;28;20101;-75
2023/06/02 02:04:51;;;;;;;19.63;2.65;;;11.00;99.90;;;;;;5052820;28;20494;-74
2023/06/02 02:07:19;;;;;;;11.80;2.88;;;11.00;99.90;;;;;;5037724;28;20148;-74
2023/06/02 02:09:47;;;;;;;11.93;2.38;;;11.00;99.90;;;;;;5088816;28;20118;-74
2023/06/02 02:12:12;;;;;;;12.02;2.58;;;11.00;99.90;;;;;;5067214;28;20334;-74
2023/06/02 02:14:38;;;;;;;11.13;2.70;;;10.90;99.90;;;;;;5087705;28;20102;-74
2023/06/02 02:17:04;;;;;;;9.13;2.33;;;10.90;99.90;;;;;;5053994;28;20395;-74
2023/06/02 02:19:34;;;;;;;12.70;2.40;;;10.90;99.90;;;;;;5087983;28;20091;-75
2023/06/02 02:22:06;;;;;;;12.93;2.80;;;10.90;99.90;;;;;;5087855;28;20059;-75
2023/06/02 02:24:31;;;;;;;9.73;2.47;;;10.90;99.90;;;;;;5071933;28;20592;-74
2023/06/02 02:26:57;;;;;;;11.13;2.63;;;10.90;99.90;;;;;;5070311;28;20040;-75
2023/06/02 02:29:23;;;;;;;10.70;2.45;;;10.40;99.90;;;;;;5088500;28;20052;-75
2023/06/02 02:31:57;;;;;;;8.63;2.00;;;10.90;99.90;;;;;;5072108;28;20102;-75
2023/06/02 02:34:25;;;;;;;9.38;2.05;;;10.90;99.90;;;;;;5047817;28;20060;-76
2023/06/02 02:36:51;;;;;;;12.00;2.63;;;10.90;99.90;;;;;;5070588;28;20040;-75
2023/06/02 02:39:33;;;;;;;10.33;2.30;;;10.90;99.90;;;;;;5072749;28;20052;-74
2023/06/02 02:42:01;;;;;;;11.13;2.22;;;10.90;99.90;;;;;;5070774;28;20524;-74
2023/06/02 02:44:33;;;;;;;10.82;2.63;;;10.90;99.90;;;;;;5056400;28;20845;-74
2023/06/02 02:47:00;;;;;;;19.02;3.45;;;10.90;99.90;;;;;;5085386;28;20097;-74
2023/06/02 02:49:27;;;;;;;8.32;2.30;;;10.90;99.90;;;;;;5070600;28;20047;-75
2023/06/02 02:52:02;;;;;;;9.40;2.80;;;10.90;99.90;;;;;;5088076;28;20141;-73
2023/06/02 02:54:49;;;;;;;12.07;2.72;;;10.90;99.90;;;;;;5076292;28;20532;-74
2023/06/02 02:57:19;;;;;;;9.38;2.50;;;10.90;99.90;;;;;;5072398;28;20048;-75
2023/06/02 02:59:47;;;;;;;11.98;3.28;;;10.90;99.90;;;;;;5085994;28;20063;-75
2023/06/02 03:02:15;;;;;;;16.95;3.10;;;10.90;99.90;;;;;;5054825;28;20606;-74
2023/06/02 03:04:43;;;;;;;11.93;3.28;;;10.90;99.90;;;;;;5089350;28;20048;-75
2023/06/02 03:07:09;;;;;;;12.05;3.00;;;10.90;99.90;;;;;;5084189;28;20153;-74
2023/06/02 03:09:41;;;;;;;10.77;2.63;;;10.90;99.90;;;;;;5040634;28;20068;-75
2023/06/02 03:12:07;;;;;;;12.70;2.50;;;10.90;99.90;;;;;;5027071;28;20098;-75
2023/06/02 03:14:34;;;;;;;14.10;2.67;;;10.90;99.90;;;;;;5029123;28;20086;-75
2023/06/02 03:17:09;;;;;;;11.93;2.85;;;10.90;99.90;;;;;;5047616;28;20060;-74
2023/06/02 03:19:43;;;;;;;12.80;2.63;;;10.90;99.90;;;;;;5054559;28;20620;-75
2023/06/02 03:22:09;;;;;;;12.50;2.70;;;10.90;99.90;;;;;;5047811;28;20052;-74
2023/06/02 03:24:40;;;;;;;13.63;3.05;;;10.90;99.90;;;;;;5028147;28;20539;-74
2023/06/02 03:27:15;;;;;;;8.52;2.28;;;10.90;99.90;;;;;;5057133;28;20053;-75
2023/06/02 03:29:46;;;;;;;9.75;2.42;;;10.90;99.90;;;;;;5047822;28;20503;-76
2023/06/02 03:32:12;;;;;;;9.43;2.33;;;10.90;99.90;;;;;;5047258;28;20045;-75
2023/06/02 03:34:48;;;;;;;11.93;3.08;;;10.90;99.90;;;;;;5032962;28;20060;-75
2023/06/02 03:37:14;;;;;;;11.80;2.83;;;11.00;99.90;;;;;;5028788;28;20051;-74
2023/06/02 03:39:46;;;;;;;13.93;2.75;;;10.90;99.90;;;;;;5049782;28;20048;-75
2023/06/02 03:42:14;;;;;;;15.05;3.92;;;11.00;99.90;;;;;;5038714;28;20040;-74
2023/06/02 03:44:41;;;;;;;13.20;2.92;;;11.00;99.90;;;;;;5067026;28;20467;-73
2023/06/02 03:47:10;;;;;;;10.10;2.95;;;11.00;99.90;;;;;;5086450;28;20040;-75
2023/06/02 03:49:42;;;;;;;13.27;2.55;;;11.00;99.90;;;;;;5085250;28;20411;-75
2023/06/02 03:52:10;;;;;;;16.48;2.50;;;11.00;99.90;;;;;;5087308;28;20067;-74
2023/06/02 03:54:38;;;;;;;11.02;2.65;;;11.00;99.90;;;;;;5086981;28;20048;-75
2023/06/02 03:57:06;;;;;;;16.55;3.13;;;11.10;99.90;;;;;;5069107;28;20131;-75
2023/06/02 03:59:31;;;;;;;16.05;3.00;;;11.10;99.90;;;;;;5061529;28;20056;-74
2023/06/02 04:02:04;;;;;;;12.25;2.65;;;11.10;99.90;;;;;;5086883;28;20051;-75
2023/06/02 04:04:31;;;;;;;14.38;3.00;;;11.10;99.90;;;;;;5086944;28;20052;-75
2023/06/02 04:07:12;;;;;;;10.10;2.60;;;11.20;99.90;;;;;;5086123;28;20097;-74
2023/06/02 04:09:38;;;;;;;9.18;2.17;;;11.20;99.90;;;;;;5083327;28;20051;-75
2023/06/02 04:12:10;;;;;;;11.38;2.58;;;11.20;99.90;;;;;;5085494;28;20055;-74
2023/06/02 04:14:36;;;;;;;15.95;2.85;;;11.20;99.90;;;;;;5085395;28;20048;-74
2023/06/02 04:17:03;;;;;;;13.52;3.05;;;11.20;99.90;;;;;;5086461;28;20055;-75
2023/06/02 04:19:28;;;;;;;11.23;2.22;;;11.20;99.90;;;;;;5085422;28;20048;-75
2023/06/02 04:21:56;;;;;;;11.88;2.10;;;11.20;99.90;;;;;;5069941;28;20416;-74
2023/06/02 04:24:27;;;;;;;11.43;2.67;;;11.30;99.90;;;;;;5047864;28;20059;-74
2023/06/02 04:26:59;;;;;;;13.30;2.42;;;11.30;99.90;;;;;;5038723;28;20117;-76
2023/06/02 04:29:25;;;;;;;12.35;2.80;;;11.30;99.90;;;;;;5053230;28;20048;-74
2023/06/02 04:31:51;;;;;;;10.23;2.65;;;11.40;99.90;;;;;;5052770;28;20056;-75
2023/06/02 04:34:17;;;;;;;12.93;2.80;;;11.40;99.90;;;;;;5086403;28;20048;-75
2023/06/02 04:36:43;;;;;;;10.68;2.97;;;11.50;99.90;;;;;;5052714;28;20173;-74
2023/06/02 04:39:09;;;;;;;12.43;2.70;;;11.50;99.90;;;;;;5069462;28;20052;-74
2023/06/02 04:41:36;;;;;;;11.75;2.72;;;11.50;99.90;;;;;;5054852;28;20043;-76
2023/06/02 04:44:05;;;;;;;9.23;2.40;;;11.50;99.90;;;;;;5056962;28;20726;-75
2023/06/02 04:46:37;;;;;;;10.50;2.25;;;11.60;99.90;;;;;;5074027;28;20094;-74
2023/06/02 04:49:09;;;;;;;9.27;2.38;;;11.60;99.90;;;;;;5042747;28;20052;-74
2023/06/02 04:51:37;;;;;;;10.30;2.60;;;11.60;99.90;;;;;;5072048;28;20044;-75
2023/06/02 04:54:15;;;;;;;15.88;2.85;;;11.70;99.90;;;;;;5058239;28;20135;-74
2023/06/02 04:56:48;;;;;;;12.00;2.58;;;11.70;99.90;;;;;;5073472;28;20054;-74
2023/06/02 04:59:14;;;;;;;13.73;2.92;;;11.70;99.90;;;;;;5073392;28;20089;-74
2023/06/02 05:01:40;;;;;;;11.05;2.90;;;11.80;99.90;;;;;;5089625;28;20044;-75
2023/06/02 05:04:09;;;;;;;11.45;2.50;;;10.50;99.90;;;;;;5073403;28;20121;-74
2023/06/02 05:06:37;;;;;;;10.63;3.25;;;11.80;99.90;;;;;;5088221;28;20048;-75
2023/06/02 05:09:23;;;;;;;10.75;2.45;;;11.80;99.90;;;;;;5102795;28;20079;-75
2023/06/02 05:11:49;;;;;;;17.30;2.65;;;11.90;99.90;;;;;;5072169;28;20514;-75
2023/06/02 05:14:20;;;;;;;11.85;2.70;;;11.90;99.90;;;;;;5090244;28;20047;-75
2023/06/02 05:16:51;;;;;;;12.82;2.70;;;11.90;99.90;;;;;;5091734;28;20047;-75
2023/06/02 05:19:16;;;;;;;13.30;2.83;;;11.90;99.90;;;;;;5088067;28;20118;-75
2023/06/02 05:21:45;;;;;;;14.27;2.70;;;12.00;99.90;;;;;;5089534;28;20048;-75
2023/06/02 05:24:14;;;;;;;11.73;3.13;;;12.00;99.90;;;;;;5072490;28;20536;-76
2023/06/02 05:26:39;;;;;;;20.00;3.05;;;12.00;99.90;;;;;;5090288;28;20060;-76
2023/06/02 05:29:05;;;;;;;8.98;2.45;;;12.10;99.90;;;;;;5072547;28;20612;-74
2023/06/02 05:31:39;;;;;;;9.65;3.00;;;12.10;99.90;;;;;;5056408;28;20052;-74
2023/06/02 05:34:07;;;;;;;10.88;2.85;;;12.20;99.90;;;;;;5089843;28;20100;-74
2023/06/02 05:36:35;;;;;;;14.95;2.50;;;12.10;99.90;;;;;;5056743;28;20052;-74
2023/06/02 05:39:06;;;;;;;13.63;3.05;;;12.20;99.90;;;;;;5075561;28;20079;-73
2023/06/02 05:41:40;;;;;;;11.30;2.90;;;11.70;99.90;;;;;;5057795;28;20099;-74
2023/06/02 05:44:07;;;;;;;12.95;2.50;;;12.20;99.90;;;;;;5076805;28;20058;-74
2023/06/02 05:46:34;;;;;;;12.77;3.17;;;12.20;99.90;;;;;;5056163;28;20052;-74
2023/06/02 05:49:09;;;;;;;10.27;2.70;;;12.20;99.90;;;;;;5074000;28;20052;-74
2023/06/02 05:51:35;;;;;;;11.02;2.75;;;12.30;99.90;;;;;;5072332;28;20048;-74
2023/06/02 05:54:01;;;;;;;12.00;2.72;;;12.10;99.90;;;;;;5072510;28;20055;-74
2023/06/02 05:56:27;;;;;;;14.55;3.00;;;12.30;99.90;;;;;;5086651;28;20483;-74
2023/06/02 05:58:58;;;;;;;15.95;2.78;;;12.40;99.90;;;;;;5057593;28;20113;-74
2023/06/02 06:01:35;;;;;;;13.32;3.28;;;12.40;99.90;;;;;;5063890;28;20490;-74
2023/06/02 06:04:07;;;;;;;14.80;2.90;;;12.40;99.90;;;;;;5088358;28;20056;-74
2023/06/02 06:06:46;;;;;;;17.50;3.58;;;12.40;99.90;;;;;;5058093;28;20066;-73
2023/06/02 06:09:30;;;;;;;15.18;3.17;;;12.50;99.90;;;;;;5090278;28;20073;-74
2023/06/02 06:11:57;;;;;;;9.25;2.47;;;12.50;99.90;;;;;;5089061;28;20048;-74
2023/06/02 06:14:24;;;;;;;12.57;2.78;;;12.50;99.90;;;;;;5086839;28;20411;-73
2023/06/02 06:16:55;;;;;;;9.32;2.90;;;12.50;99.90;;;;;;5089259;28;20044;-74
2023/06/02 06:19:20;;;;;;;12.40;3.85;;;12.60;99.90;;;;;;5088071;28;20196;-74
2023/06/02 06:21:53;;;;;;;10.32;2.45;;;12.60;99.90;;;;;;5073087;28;20136;-73
2023/06/02 06:24:26;;;;;;;11.40;3.08;;;12.60;99.90;;;;;;5058763;28;20083;-74
2023/06/02 06:26:58;;;;;;;16.48;3.15;;;12.60;99.90;;;;;;5071030;28;20040;-73
2023/06/02 06:29:24;;;;;;;14.55;3.05;;;12.60;99.90;;;;;;5072258;28;20098;-74
2023/06/02 06:31:53;;;;;;;13.55;2.90;;;12.70;99.90;;;;;;5090435;28;20110;-72
2023/06/02 06:34:20;;;;;;;12.27;2.78;;;12.70;99.90;;;;;;5055190;28;20502;-75
2023/06/02 06:36:47;;;;;;;17.02;3.00;;;12.80;99.90;;;;;;5054419;28;20093;-75
2023/06/02 06:39:17;;;;;;;18.35;3.50;;;12.80;99.90;;;;;;5089752;28;20168;-75
2023/06/02 06:41:44;;;;;;;18.38;3.20;;;12.80;99.90;;;;;;5064441;28;20143;-74
2023/06/02 06:44:12;;;;;;;15.05;3.08;;;12.80;99.90;;;;;;5089443;28;20119;-74
2023/06/02 06:46:44;;;;;;;13.05;2.72;;;12.80;99.90;;;;;;5089280;28;20407;-74
2023/06/02 06:49:12;;;;;;;10.30;2.83;;;12.90;99.90;;;;;;5084789;28;20101;-74
2023/06/02 06:51:57;;;;;;;11.63;2.80;;;12.90;99.90;;;;;;5070051;28;20046;-74
2023/06/02 06:54:23;;;;;;;18.85;3.35;;;12.90;99.90;;;;;;5088955;28;20440;-76
2023/06/02 06:56:51;;;;;;;11.85;2.70;;;12.90;99.90;;;;;;5055031;28;20113;-74
2023/06/02 06:59:32;;;;;;;15.88;3.38;;;13.00;99.90;;;;;;5064646;28;20082;-76
2023/06/02 07:02:04;;;;;;;9.30;3.20;;;13.00;99.90;;;;;;5071510;28;20495;-73
2023/06/02 07:04:35;;;;;;;12.38;2.67;;;13.00;99.90;;;;;;5049229;28;20055;-74
2023/06/02 07:07:09;;;;;;;18.42;4.03;;;13.10;99.90;;;;;;5072569;28;20054;-74
2023/06/02 07:09:43;;;;;;;13.88;3.60;;;13.10;99.90;;;;;;5102556;28;20356;-74
2023/06/02 07:12:15;;;;;;;16.10;3.17;;;13.10;99.90;;;;;;5012729;28;20139;-74
2023/06/02 07:14:41;;;;;;;14.35;3.13;;;13.20;99.90;;;;;;5029899;28;20109;-75
2023/06/02 07:17:08;;;;;;;15.10;3.55;;;13.20;99.90;;;;;;5046282;28;20084;-74
2023/06/02 07:19:34;;;;;;;16.48;3.67;;;13.30;99.90;;;;;;5029693;28;20048;-74
2023/06/02 07:22:05;;;;;;;11.77;3.03;;;13.30;99.90;;;;;;5028774;28;20052;-74
2023/06/02 07:24:35;;;;;;;15.15;3.92;;;13.40;99.90;;;;;;5030003;28;20135;-74
2023/06/02 07:27:02;;;;;;;16.50;3.22;;;13.40;99.90;;;;;;4996948;28;20056;-74
2023/06/02 07:29:30;;;;;;;14.77;2.65;;;13.50;99.90;;;;;;5028993;28;20057;-74
2023/06/02 07:31:56;;;;;;;19.40;4.32;;;13.50;99.90;;;;;;4996227;28;20088;-74
2023/06/02 07:34:27;;;;;;;12.93;3.50;;;13.60;99.90;;;;;;5030191;28;20099;-74
2023/06/02 07:36:56;;;;;;;15.68;3.40;;;13.60;99.90;;;;;;5045350;28;20397;-74
2023/06/02 07:39:24;;;;;;;13.90;3.30;;;13.70;99.90;;;;;;5029220;28;20067;-74
2023/06/02 07:41:50;;;;;;;12.15;3.78;;;13.70;99.90;;;;;;5011710;28;20550;-73
2023/06/02 07:44:17;;;;;;;19.05;5.07;;;13.80;99.90;;;;;;5066561;28;20060;-74
2023/06/02 07:47:12;;;;;;;16.90;3.95;;;13.90;99.90;;;;;;5073446;28;20400;-74
2023/06/02 07:49:39;;;;;;;18.85;3.78;;;14.00;99.90;;;;;;5054029;28;20059;-74
2023/06/02 07:52:05;;;;;;;14.27;3.38;;;14.10;99.90;;;;;;5046108;28;20056;-74
2023/06/02 07:54:34;;;;;;;12.20;3.53;;;14.20;99.90;;;;;;5085654;28;20076;-74
2023/06/02 07:57:28;;;;;;;15.82;3.13;;;14.20;99.90;;;;;;5069800;28;20112;-76
2023/06/02 07:59:58;;;;;;;14.07;3.50;;;14.30;99.90;;;;;;5085587;28;20087;-75
2023/06/02 08:02:28;;;;;;;18.00;3.35;;;14.50;99.90;;;;;;5088413;28;20127;-75
2023/06/02 08:04:53;;;;;;;14.07;3.42;;;14.50;99.90;;;;;;5086276;28;20459;-73
2023/06/02 08:07:23;;;;;;;16.30;3.90;;;15.70;99.90;;;;;;5066043;28;20056;-75
2023/06/02 08:09:52;;;;;;;14.52;3.08;;;14.70;99.90;;;;;;5069773;28;20055;-74
2023/06/02 08:12:24;;;;;;;11.88;3.20;;;14.70;99.90;;;;;;5103089;28;21098;-74
2023/06/02 08:14:58;;;;;;;19.98;4.38;;;14.80;99.90;;;;;;5087308;28;20087;-74
2023/06/02 08:17:30;;;;;;;14.80;4.18;;;14.90;99.90;;;;;;5049774;28;20127;-73
2023/06/02 08:20:07;;;;;;;17.63;3.80;;;15.00;99.90;;;;;;5090371;28;20055;-73
2023/06/02 08:22:40;;;;;;;21.63;3.47;;;15.10;99.90;;;;;;5086191;28;20044;-74
2023/06/02 08:25:08;;;;;;;13.05;3.40;;;15.20;99.90;;;;;;5073345;28;20059;-74
2023/06/02 08:27:36;;;;;;;10.65;3.70;;;15.20;99.90;;;;;;5082466;28;20082;-74
2023/06/02 08:30:37;;;;;;;11.82;3.00;;;15.20;99.90;;;;;;5090758;28;20078;-74
2023/06/02 08:33:08;;;;;;;13.48;3.50;;;15.30;99.90;;;;;;5091322;28;20048;-74
2023/06/02 08:35:50;;;;;;;17.08;3.40;;;15.40;99.90;;;;;;5088602;28;20131;-74
2023/06/02 08:38:29;;;;;;;15.95;3.78;;;15.40;99.90;;;;;;5051283;28;20908;-75
2023/06/02 08:41:07;;;;;;;16.85;3.38;;;15.50;99.90;;;;;;5086877;28;20044;-74
2023/06/02 08:43:41;;;;;;;14.68;3.67;;;15.60;99.90;;;;;;5090886;28;20123;-74
2023/06/02 08:46:50;;;;;;;16.52;3.17;;;15.70;99.90;;;;;;5089926;28;20127;-75
2023/06/02 08:49:29;;;;;;;14.43;3.45;;;15.80;99.90;;;;;;5087550;28;20061;-74
2023/06/02 08:52:04;;;;;;;23.00;3.78;;;15.90;99.90;;;;;;5073395;28;20093;-75
2023/06/02 08:54:39;;;;;;;17.40;3.15;;;15.90;99.90;;;;;;5089746;28;20564;-75
2023/06/02 08:57:38;;;;;;;;;;;16.10;99.90;;;;;;5090156;28;20155;-76
2023/06/02 09:00:15;;;;;;;12.90;3.60;;;16.30;99.90;;;;;;5089664;28;19928;-75
2023/06/02 09:02:58;;;;;;;19.55;3.83;;;16.50;99.90;;;;;;5090511;28;20412;-75
2023/06/02 09:05:36;;;;;;;16.40;3.20;;;16.60;99.90;;;;;;5088562;28;20048;-75
2023/06/02 09:08:31;;;;;;;18.15;3.80;;;16.70;99.90;;;;;;5088698;28;20079;-74
2023/06/02 09:11:17;;;;;;;17.15;3.42;;;16.80;99.90;;;;;;5088388;28;20064;-75
2023/06/02 09:14:22;;;;;;;12.57;3.58;;;17.00;99.90;;;;;;5085837;28;20040;-74
2023/06/02 09:16:54;;;;;;;19.25;3.80;;;17.10;99.90;;;;;;5088011;28;20449;-74
2023/06/02 09:19:24;;;;;;;14.18;3.63;;;17.50;99.90;;;;;;5073358;28;20079;-76
2023/06/02 09:21:51;;;;;;;14.05;3.17;;;17.80;99.90;;;;;;5055771;28;20048;-76
2023/06/02 09:24:32;;;;;;;17.08;4.22;;;18.30;99.90;;;;;;5073421;28;20083;-75
2023/06/02 09:27:04;;;;;;;12.93;3.35;;;18.90;99.90;;;;;;5087286;28;20101;-76
2023/06/02 09:29:48;;;;;;;17.15;3.78;;;19.50;99.90;;;;;;5065707;28;20082;-75
2023/06/02 09:32:18;;;;;;;17.77;3.67;;;20.00;99.90;;;;;;5073181;28;20048;-76
2023/06/02 09:34:52;;;;;;;12.38;3.15;;;20.10;99.90;;;;;;5072576;28;20066;-73
2023/06/02 09:37:23;;;;;;;19.50;4.15;;;20.20;99.90;;;;;;5049642;28;20044;-76
2023/06/02 09:39:53;;;;;;;15.52;3.58;;;20.30;99.90;;;;;;5082463;28;20063;-75
2023/06/02 09:42:47;;;;;;;13.07;3.13;;;20.60;99.90;;;;;;5084825;28;20063;-75
2023/06/02 09:45:23;;;;;;;18.45;3.78;;;20.80;99.90;;;;;;5073611;28;20085;-75
2023/06/02 09:48:35;;;;;;;11.23;2.80;;;20.90;99.90;;;;;;5088890;28;20800;-75
2023/06/02 09:51:48;;;;;;;17.92;4.32;;;21.00;99.90;;;;;;5088757;28;20084;-75
2023/06/02 09:54:44;;;;;;;11.50;3.35;;;21.20;99.90;;;;;;5089070;28;20071;-75
2023/06/02 09:57:26;;;;;;;14.63;3.97;;;21.50;99.90;;;;;;5105039;28;20136;-75
2023/06/02 10:00:18;;;;;;;19.95;4.43;;;21.50;99.90;;;;;;5066416;28;20056;-75
2023/06/02 10:02:51;;;;;;;17.42;3.63;;;21.50;99.90;;;;;;5056139;28;20060;-75
2023/06/02 10:05:44;;;;;;;15.82;3.65;;;21.60;99.90;;;;;;5089979;28;20056;-74
2023/06/02 10:08:33;;;;;;;11.35;3.42;;;21.70;99.90;;;;;;5089989;28;20044;-75
2023/06/02 10:11:16;;;;;;;;;;;21.90;99.90;;;;;;5088507;28;20058;-75
2023/06/02 10:14:14;;;;;;;12.23;3.80;;;22.30;99.90;;;;;;5057042;28;20027;-75
2023/06/02 10:17:21;;;;;;;18.88;3.45;;;22.60;99.90;;;;;;5082693;28;20063;-75
2023/06/02 10:20:47;;;;;;;13.88;3.40;;;22.90;99.90;;;;;;5066840;28;20418;-73
2023/06/02 10:23:53;;;;;;;18.30;3.72;;;23.30;99.90;;;;;;5064576;28;20052;-73
2023/06/02 10:26:57;;;;;;;11.63;2.92;;;23.40;99.90;;;;;;5049170;28;20075;-75
2023/06/02 10:29:33;;;;;;;12.60;3.03;;;23.50;99.90;;;;;;5049059;28;20068;-74
2023/06/02 10:32:45;;;;;;;13.35;3.45;;;23.60;99.90;;;;;;5052769;28;20035;-73
2023/06/02 10:36:01;;;;;;;14.23;3.33;;;23.60;99.90;;;;;;5064015;28;20053;-73
2023/06/02 10:39:32;;;;;;;10.32;2.50;;;23.90;99.80;;;;;;4995129;28;20161;-74
2023/06/02 10:42:34;;;;;;;9.13;2.50;;;23.90;99.10;;;;;;4942108;28;20233;-73
2023/06/02 10:45:42;;;;;;;10.05;2.65;;;24.50;98.20;;;;;;4966435;28;20085;-74
2023/06/02 10:48:49;;;;;;;9.43;2.45;;;24.70;98.00;;;;;;4948094;28;20093;-73
2023/06/02 10:52:05;;;;;;;6.90;2.15;;;25.00;96.60;;;;;;5016031;28;20430;-73
2023/06/02 10:55:17;;;;;;;8.80;2.10;;;25.10;95.50;;;;;;5064232;28;20435;-74
2023/06/02 10:58:12;;;;;;;8.30;2.15;;;25.30;95.60;;;;;;5065432;28;20538;-74
2023/06/02 11:01:57;;;;;;;11.02;2.30;;;25.50;95.50;;;;;;5054149;28;20624;-74
2023/06/02 11:04:46;;;;;;;11.85;2.50;;;25.80;93.50;;;;;;5062882;28;20091;-74
2023/06/02 11:07:28;;;;;;;10.55;2.25;;;25.90;94.50;;;;;;5050360;28;20457;-74
2023/06/02 11:11:02;;;;;;;6.85;1.58;;;25.90;93.90;;;;;;5075422;28;20048;-75
2023/06/02 11:14:15;;;;;;;7.82;1.92;;;26.00;91.50;;;;;;5086283;28;20176;-74
2023/06/02 11:17:42;;;;;;;6.63;1.83;;;26.20;92.20;;;;;;5087335;28;20062;-74
2023/06/02 11:20:53;;;;;;;6.00;1.52;;;26.40;91.40;;;;;;5078071;28;20154;-74
2023/06/02 11:24:10;;;;;;;9.18;1.85;;;26.50;91.60;;;;;;5070742;28;20059;-75
2023/06/02 11:27:29;;;;;;;7.10;1.90;;;26.60;88.40;;;;;;5086020;28;20047;-74
2023/06/02 11:30:17;;;;;;;6.88;1.77;;;26.60;88.70;;;;;;5088790;28;20047;-74
2023/06/02 11:33:15;;;;;;;6.90;2.10;;;26.50;87.50;;;;;;5070336;28;20059;-75
2023/06/02 11:36:38;;;;;;;4.85;1.50;;;26.50;88.60;;;;;;5085737;28;20059;-73
2023/06/02 11:39:39;;;;;;;6.95;1.90;;;26.50;85.70;;;;;;4976357;28;20057;-74
2023/06/02 11:42:28;;;;;;;6.13;1.83;;;26.60;86.60;;;;;;5012587;28;20173;-74
2023/06/02 11:45:26;;;;;;;5.47;1.40;;;26.90;86.40;;;;;;5008627;28;20068;-75
2023/06/02 11:48:38;;;;;;;4.47;1.92;;;27.10;82.80;;;;;;5079951;28;20044;-75
2023/06/02 11:51:26;;;;;;;10.23;2.30;;;27.30;83.80;;;;;;5087170;28;20094;-75
2023/06/02 11:54:18;;;;;;;7.38;1.75;;;27.50;83.90;;;;;;5053857;28;20554;-74
2023/06/02 11:57:04;;;;;;;4.43;1.40;;;27.70;81.10;;;;;;5085663;28;20141;-75
2023/06/02 12:03:01;;;;;;;8.60;1.98;;;27.60;80.20;;;;;;5086925;28;20052;-74
2023/06/02 12:05:57;;;;;;;5.63;1.73;;;27.50;80.20;;;;;;5086905;28;20136;-75
2023/06/02 12:08:29;;;;;;;4.38;1.38;;;27.70;78.70;;;;;;5080894;28;20579;-74
2023/06/02 12:11:14;;;;;;;4.03;1.45;;;27.70;78.40;;;;;;5082686;28;20110;-75
2023/06/02 12:17:25;;;;;;;5.25;1.60;;;27.90;76.80;;;;;;5087027;28;20402;-74
2023/06/02 12:20:46;;;;;;;5.47;1.75;;;27.90;75.50;;;;;;5070041;28;20055;-75
2023/06/02 12:23:50;;;;;;;5.75;1.67;;;27.90;75.60;;;;;;5085330;28;20141;-75
2023/06/02 12:26:19;;;;;;;5.35;1.92;;;27.90;74.10;;;;;;5084489;28;20063;-75
2023/06/02 12:29:16;;;;;;;5.25;1.50;;;27.90;74.40;;;;;;5081483;28;20059;-74
2023/06/02 12:32:20;;;;;;;6.07;1.50;;;27.80;73.00;;;;;;5085425;28;20083;-75
2023/06/02 12:35:12;;;;;;;3.47;1.40;;;27.70;72.60;;;;;;5070011;28;20060;-74
2023/06/02 12:38:04;;;;;;;6.30;1.17;;;27.70;73.70;;;;;;5048772;28;20060;-74
2023/06/02 12:41:10;;;;;;;5.30;1.70;;;27.90;74.10;;;;;;5070465;28;20052;-75
2023/06/02 12:44:17;;;;;;;5.47;1.50;;;27.90;72.70;;;;;;5086438;28;20169;-73
2023/06/02 12:46:54;;;;;;;9.05;1.77;;;28.00;72.20;;;;;;5088038;28;20453;-76
2023/06/02 12:49:47;;;;;;;6.25;1.48;;;28.10;73.30;;;;;;5085210;28;20518;-78
2023/06/02 12:52:52;;;;;;;5.88;1.33;;;28.20;73.40;;;;;;5085246;28;20060;-75
2023/06/02 12:55:20;;;;;;;3.70;1.70;;;28.20;72.30;;;;;;5068958;28;20056;-74
2023/06/02 12:57:47;;;;;;;5.53;1.55;;;27.90;73.10;;;;;;5030562;28;20067;-74
2023/06/02 13:01:06;;;;;;;3.97;1.63;;;28.10;73.60;;;;;;5055147;28;20075;-75
2023/06/02 13:07:38;;;;;;;5.28;1.63;;;28.00;73.30;;;;;;5050912;28;20127;-75
2023/06/02 13:10:16;;;;;;;3.97;1.60;;;28.10;73.90;;;;;;5028643;28;20294;-74
2023/06/02 13:12:53;;;;;;;6.38;1.65;;;28.10;74.00;;;;;;5034108;28;20068;-76
2023/06/02 13:15:41;;;;;;;4.82;2.25;;;28.00;74.30;;;;;;5039617;28;20735;-74
2023/06/02 13:18:29;;;;;;;6.43;1.80;;;27.90;74.40;;;;;;5046877;28;20067;-75
2023/06/02 13:21:41;;;;;;;4.82;1.92;;;27.90;74.50;;;;;;5065212;28;20094;-75
2023/06/02 13:27:46;;;;;;;4.80;1.60;;;27.60;74.40;;;;;;5060832;28;20056;-75
2023/06/02 13:30:59;;;;;;;4.32;1.80;;;27.20;74.30;;;;;;5090728;28;20078;-75
2023/06/02 13:33:36;;;;;;;6.72;1.92;;;27.10;75.20;;;;;;5080956;28;20092;-75
2023/06/02 13:36:22;;;;;;;;;;;26.90;75.80;;;;;;5091597;28;20046;-74
2023/06/02 13:39:05;;;;;;;3.83;1.63;;;26.60;75.70;;;;;;5073801;28;19981;-74
2023/06/02 13:42:01;;;;;;;5.85;1.73;;;26.30;77.00;;;;;;5088694;28;20063;-73
2023/06/02 13:44:41;;;;;;;;;;;26.10;77.10;;;;;;5090058;28;20044;-75
2023/06/02 13:47:30;;;;;;;6.05;1.67;;;25.90;77.60;;;;;;5085934;28;19920;-75